Nelspruit, South Africa
Current Conditions -  °F | °C
As of 4:00 PM on Thursday 23 Oct 2014 (Local Time) from FAKN Reporting Station
Overcast Overcast  
Wind Chill: 68°   Ceiling: 2500
Heat Index: 68°   Visibility: 6mi
Dew Point: 54°   Wind: 9mph
Humidity: 60%   Direction: 30°NNE
Pressure: 30"   Gusts: NA
Location:  25.47°S, 30.99°E
Report Text: FAKN 231400Z 03008KT 9999 SCT020 OVC025 20/12 Q1016 NOSIG
Loading
Personal Weather Stations






























Interactive Weather Map
Tropical Storm Tracking
New forecast layout! Learn more

10-Day Weather Forecast

Advertisements
Track Severe Weather on mobile